createdAt,value
2018-08-19T00:00:11.109Z,24.46
2018-08-19T00:01:21.171Z,24.45
2018-08-19T00:02:31.253Z,24.39
2018-08-19T00:03:41.339Z,24.34
2018-08-19T00:04:51.405Z,24.3
2018-08-19T00:06:01.226Z,24.32
2018-08-19T00:07:11.306Z,24.29
2018-08-19T00:08:21.392Z,24.21
2018-08-19T00:09:31.476Z,24.34
2018-08-19T00:10:41.565Z,24.29
2018-08-19T00:11:51.663Z,24.32
2018-08-19T00:13:01.737Z,24.22
2018-08-19T00:14:11.849Z,24.18
2018-08-19T00:15:21.685Z,24.18
2018-08-19T00:16:31.822Z,24.17
2018-08-19T00:17:41.907Z,24.17
2018-08-19T00:18:51.716Z,24.11
2018-08-19T00:20:01.807Z,24.11
2018-08-19T00:21:11.891Z,24.08
2018-08-19T00:22:22.020Z,24.04
2018-08-19T00:23:31.840Z,24.11
2018-08-19T00:24:41.934Z,24.09
2018-08-19T00:25:51.755Z,24.03
2018-08-19T00:27:01.832Z,24.04
2018-08-19T00:28:11.937Z,24.03
2018-08-19T00:29:21.749Z,24.08
2018-08-19T00:30:31.854Z,24.07
2018-08-19T00:31:41.677Z,24.03
2018-08-19T00:32:51.510Z,24.03
2018-08-19T00:34:01.652Z,24.11
2018-08-19T00:35:11.798Z,24.03
2018-08-19T00:36:21.378Z,24.07
2018-08-19T00:37:30.939Z,24.04
2018-08-19T00:38:41.044Z,24.03
2018-08-19T00:39:51.188Z,24
2018-08-19T00:41:00.751Z,24.02
2018-08-19T00:42:10.840Z,24.07
2018-08-19T00:43:20.671Z,24.11
2018-08-19T00:44:30.745Z,24.08
2018-08-19T00:45:40.851Z,24.03
2018-08-19T00:46:50.402Z,24.03
2018-08-19T00:48:00.489Z,24.03
2018-08-19T00:49:10.306Z,24
2018-08-19T00:50:20.394Z,24.03
2018-08-19T00:51:30.230Z,24.07
2018-08-19T00:52:40.327Z,23.94
2018-08-19T00:53:50.156Z,23.89
2018-08-19T00:55:00.330Z,23.89
2018-08-19T00:56:10.420Z,23.84
2018-08-19T00:57:20.500Z,23.77
2018-08-19T00:58:30.835Z,23.75
2018-08-19T00:59:40.909Z,23.71
2018-08-19T01:00:50.739Z,23.7
2018-08-19T01:02:00.579Z,23.71
2018-08-19T01:03:10.502Z,23.64
2018-08-19T01:04:20.323Z,23.74
2018-08-19T01:05:30.388Z,23.66
2018-08-19T01:06:40.199Z,23.59
2018-08-19T01:07:50.016Z,23.62
2018-08-19T01:09:00.096Z,23.62
2018-08-19T01:10:09.913Z,23.67
2018-08-19T01:11:19.998Z,23.66
2018-08-19T01:12:29.812Z,23.62
2018-08-19T01:13:39.896Z,23.67
2018-08-19T01:14:49.986Z,23.72
2018-08-19T01:16:00.061Z,23.6
2018-08-19T01:17:10.140Z,23.63
2018-08-19T01:18:20.228Z,23.6
2018-08-19T01:19:30.304Z,23.5
2018-08-19T01:20:40.431Z,23.53
2018-08-19T01:21:50.514Z,23.6
2018-08-19T01:23:00.426Z,23.55
2018-08-19T01:24:10.521Z,23.47
2018-08-19T01:25:20.087Z,23.48
2018-08-19T01:26:29.959Z,23.4
2018-08-19T01:27:40.063Z,23.41
2018-08-19T01:28:50.154Z,23.37
2018-08-19T01:30:00.331Z,23.35
2018-08-19T01:31:10.408Z,23.37
2018-08-19T01:32:20.497Z,23.4
2018-08-19T01:33:30.580Z,23.35
2018-08-19T01:34:40.676Z,23.35
2018-08-19T01:35:50.741Z,23.37
2018-08-19T01:37:00.838Z,23.35
2018-08-19T01:38:10.930Z,23.35
2018-08-19T01:39:21.026Z,23.35
2018-08-19T01:40:31.112Z,23.35
2018-08-19T01:41:41.207Z,23.42
2018-08-19T01:42:51.282Z,23.4
2018-08-19T01:44:05.059Z,23.35
2018-08-19T01:45:15.136Z,23.4
2018-08-19T01:46:24.949Z,23.47
2018-08-19T01:47:35.288Z,23.47
2018-08-19T01:48:45.124Z,23.52
2018-08-19T01:49:55.208Z,23.4
2018-08-19T01:51:05.331Z,23.4
2018-08-19T01:52:15.425Z,23.4
2018-08-19T01:53:25.507Z,23.48
2018-08-19T01:54:35.576Z,23.38
2018-08-19T01:55:45.646Z,23.5
2018-08-19T01:56:55.716Z,23.47
2018-08-19T01:58:05.784Z,23.45
2018-08-19T01:59:15.869Z,23.45
2018-08-19T02:00:25.983Z,23.45
2018-08-19T02:01:36.115Z,23.35
2018-08-19T02:02:46.180Z,23.48
2018-08-19T02:03:55.991Z,23.37
2018-08-19T02:05:06.108Z,23.4
2018-08-19T02:06:15.905Z,23.44
2018-08-19T02:07:25.979Z,23.59
2018-08-19T02:08:35.792Z,23.48
2018-08-19T02:09:45.851Z,23.44
2018-08-19T02:10:55.670Z,23.44
2018-08-19T02:12:05.754Z,23.55
2018-08-19T02:13:15.835Z,23.5
2018-08-19T02:14:25.945Z,23.52
2018-08-19T02:15:36.074Z,23.53
2018-08-19T02:16:45.886Z,23.44
2018-08-19T02:17:55.750Z,23.38
2018-08-19T02:19:05.873Z,23.4
2018-08-19T02:20:15.961Z,23.32
2018-08-19T02:21:26.044Z,23.32
2018-08-19T02:22:36.157Z,23.28
2018-08-19T02:23:45.982Z,23.32
2018-08-19T02:24:56.072Z,23.26
2018-08-19T02:26:05.889Z,23.21
2018-08-19T02:27:15.956Z,23.25
2018-08-19T02:28:25.766Z,23.21
2018-08-19T02:29:35.846Z,23.26
2018-08-19T02:30:45.666Z,23.29
2018-08-19T02:31:55.754Z,23.22
2018-08-19T02:33:05.839Z,23.28
2018-08-19T02:34:15.923Z,23.21
2018-08-19T02:35:26.010Z,23.24
2018-08-19T02:36:35.817Z,23.24
2018-08-19T02:37:45.630Z,23.12
2018-08-19T02:38:55.705Z,23.15
2018-08-19T02:40:05.785Z,23.21
2018-08-19T02:41:15.866Z,23.18
2018-08-19T02:42:25.994Z,23.09
2018-08-19T02:43:35.842Z,23.01
2018-08-19T02:44:45.922Z,23.04
2018-08-19T02:45:56.007Z,23.06
2018-08-19T02:47:05.836Z,23.03
2018-08-19T02:48:15.390Z,23
2018-08-19T02:49:25.491Z,22.91
2018-08-19T02:50:35.325Z,23
2018-08-19T02:51:45.413Z,22.94
2018-08-19T02:52:55.481Z,22.96
2018-08-19T02:54:05.715Z,23.01
2018-08-19T02:55:15.796Z,22.92
2018-08-19T02:56:25.889Z,22.97
2018-08-19T02:57:35.995Z,22.89
2018-08-19T02:58:46.093Z,22.91
2018-08-19T02:59:55.985Z,22.85
2018-08-19T03:01:06.081Z,22.84
2018-08-19T03:02:16.158Z,22.92
2018-08-19T03:35:22.034Z,20.63
2018-08-19T03:36:32.103Z,20.58
2018-08-19T03:37:42.169Z,20.63
2018-08-19T03:38:52.061Z,20.6
2018-08-19T03:40:02.177Z,20.72
2018-08-19T03:41:12.248Z,20.68
2018-08-19T03:42:22.050Z,20.83
2018-08-19T03:43:32.191Z,20.83
2018-08-19T03:44:42.295Z,20.94
2018-08-19T03:45:52.372Z,21.03
2018-08-19T03:47:02.442Z,21.09
2018-08-19T03:48:12.271Z,21.16
2018-08-19T03:49:22.426Z,21.36
2018-08-19T03:50:32.524Z,21.49
2018-08-19T03:51:42.334Z,21.56
2018-08-19T03:52:52.402Z,21.55
2018-08-19T03:54:02.498Z,21.68
2018-08-19T03:55:12.360Z,21.8
2018-08-19T03:56:22.440Z,21.8
2018-08-19T03:57:32.521Z,21.82
2018-08-19T03:58:42.596Z,21.94
2018-08-19T03:59:52.674Z,22.07
2018-08-19T04:01:03.288Z,22.08
2018-08-19T04:02:13.367Z,22.23
2018-08-19T04:03:23.453Z,22.2
2018-08-19T04:04:33.548Z,22.24
2018-08-19T04:05:43.615Z,22.34
2018-08-19T04:06:53.692Z,22.34
2018-08-19T04:08:03.761Z,22.42
2018-08-19T04:09:13.841Z,22.51
2018-08-19T04:10:23.933Z,22.51
2018-08-19T04:11:34.004Z,22.59
2018-08-19T04:12:44.087Z,22.66
2018-08-19T04:13:54.159Z,22.67
2018-08-19T04:15:04.238Z,22.7
2018-08-19T04:16:14.327Z,22.75
2018-08-19T04:17:24.417Z,22.79
2018-08-19T04:18:34.233Z,22.78
2018-08-19T04:19:44.309Z,22.81
2018-08-19T04:20:54.424Z,22.89
2018-08-19T04:22:04.488Z,22.89
2018-08-19T04:23:14.576Z,22.88
2018-08-19T04:24:24.690Z,22.89
2018-08-19T04:25:34.764Z,22.92
2018-08-19T04:26:44.841Z,23
2018-08-19T04:27:54.666Z,22.89
2018-08-19T04:29:04.224Z,22.97
2018-08-19T04:30:13.791Z,23.06
2018-08-19T04:31:23.641Z,23
2018-08-19T04:32:33.728Z,23.09
2018-08-19T04:33:43.556Z,23.03
2018-08-19T04:34:53.667Z,23.1
2018-08-19T04:36:03.485Z,23.12
2018-08-19T04:37:13.317Z,23.15
2018-08-19T04:38:23.422Z,23.15
2018-08-19T04:39:33.503Z,23.19
2018-08-19T04:40:43.623Z,23.22
2018-08-19T04:41:53.726Z,23.21
2018-08-19T04:43:03.816Z,23.22
2018-08-19T04:44:13.887Z,23.25
2018-08-19T04:45:23.975Z,23.25
2018-08-19T04:46:33.794Z,23.29
2018-08-19T04:47:43.622Z,23.41
2018-08-19T04:48:53.182Z,23.38
2018-08-19T04:50:03.032Z,23.45
2018-08-19T04:51:13.120Z,23.44
2018-08-19T04:52:23.191Z,23.47
2018-08-19T04:53:33.345Z,23.55
2018-08-19T04:54:43.158Z,23.55
2018-08-19T04:55:53.259Z,23.56
2018-08-19T04:57:03.340Z,23.59
2018-08-19T04:58:13.422Z,23.57
2018-08-19T04:59:23.295Z,23.67
2018-08-19T05:00:33.429Z,23.67
2018-08-19T05:01:43.511Z,23.75
2018-08-19T05:02:53.599Z,23.89
2018-08-19T05:04:03.686Z,23.82
2018-08-19T05:05:13.499Z,23.9
2018-08-19T05:06:23.565Z,23.9
2018-08-19T05:07:33.108Z,23.9
2018-08-19T05:08:43.240Z,24
2018-08-19T05:09:53.334Z,23.93
2018-08-19T05:11:03.473Z,23.96
2018-08-19T05:12:13.552Z,24.03
2018-08-19T05:13:23.643Z,24.07
2018-08-19T05:14:33.462Z,24.11
2018-08-19T05:15:43.634Z,24.11
2018-08-19T05:16:53.525Z,24.18
2018-08-19T05:18:03.345Z,24.12
2018-08-19T05:19:13.155Z,24.21
2018-08-19T05:20:23.232Z,24.32
2018-08-19T05:21:33.317Z,24.27
2018-08-19T05:22:43.842Z,24.32
2018-08-19T05:23:53.665Z,24.48
2018-08-19T05:25:03.747Z,24.59
2018-08-19T05:26:13.839Z,24.66
2018-08-19T05:27:23.646Z,24.64
2018-08-19T05:28:34.099Z,24.7
2018-08-19T05:29:44.013Z,24.85
2018-08-19T05:30:54.087Z,24.8
2018-08-19T05:32:03.895Z,24.74
2018-08-19T05:33:13.976Z,24.86
2018-08-19T05:34:23.857Z,25.01
2018-08-19T05:35:33.936Z,25.2
2018-08-19T05:36:43.773Z,25.22
2018-08-19T05:37:53.638Z,25.26
2018-08-19T05:39:03.337Z,25.3
2018-08-19T05:40:13.511Z,25.27
2018-08-19T05:41:23.332Z,25.41
2018-08-19T05:42:33.423Z,25.47
2018-08-19T05:43:43.299Z,25.48
2018-08-19T05:44:53.381Z,25.56
2018-08-19T05:46:03.477Z,25.64
2018-08-19T05:47:13.351Z,25.82
2018-08-19T05:48:23.661Z,26.19
2018-08-19T05:49:33.778Z,26.39
2018-08-19T05:50:43.856Z,26.44
2018-08-19T05:51:53.982Z,26.42
2018-08-19T05:53:04.072Z,26.44
2018-08-19T05:54:14.416Z,26.39
2018-08-19T05:55:24.525Z,26.56
2018-08-19T05:56:34.756Z,26.79
2018-08-19T05:57:44.587Z,26.81
2018-08-19T05:58:54.672Z,26.78
2018-08-19T06:00:04.772Z,26.79
2018-08-19T06:01:15.249Z,26.93
2018-08-19T06:02:25.511Z,26.93
2018-08-19T06:03:35.595Z,27.09
2018-08-19T06:04:45.673Z,27.62
2018-08-19T06:05:55.758Z,27.86
2018-08-19T06:07:06.353Z,27.86
2018-08-19T06:08:16.449Z,27.83
2018-08-19T06:09:26.529Z,27.68
2018-08-19T06:10:36.620Z,27.57
2018-08-19T06:11:46.694Z,27.49
2018-08-19T06:12:56.775Z,27.57
2018-08-19T06:14:06.878Z,27.65
2018-08-19T06:15:16.712Z,27.55
2018-08-19T06:16:26.775Z,27.62
2018-08-19T06:17:36.877Z,27.61
2018-08-19T06:18:46.945Z,27.62
2018-08-19T06:19:56.781Z,27.64
2018-08-19T06:21:06.871Z,27.68
2018-08-19T06:22:16.949Z,27.84
2018-08-19T06:23:27.033Z,27.94
2018-08-19T06:24:37.299Z,27.99
2018-08-19T06:25:47.270Z,28.09
2018-08-19T06:26:57.359Z,28.11
2018-08-19T06:28:07.433Z,28.2
2018-08-19T06:29:17.537Z,28.36
2018-08-19T06:30:27.685Z,28.3
2018-08-19T06:31:37.762Z,28.45
2018-08-19T06:32:47.839Z,28.48
2018-08-19T06:33:57.930Z,28.55
2018-08-19T06:35:08.557Z,28.7
2018-08-19T06:36:18.462Z,28.65
2018-08-19T06:37:28.581Z,28.65
2018-08-19T06:38:38.668Z,28.83
2018-08-19T06:39:48.492Z,28.91
2018-08-19T06:40:58.628Z,28.9
2018-08-19T06:42:08.456Z,28.95
2018-08-19T06:43:18.553Z,28.91
2018-08-19T06:44:28.749Z,28.98
2018-08-19T06:45:38.576Z,28.98
2018-08-19T06:46:48.144Z,29.26
2018-08-19T06:47:58.219Z,29.35
2018-08-19T06:49:08.502Z,29.45
2018-08-19T06:50:18.616Z,29.43
2018-08-19T06:51:28.708Z,29.3
2018-08-19T06:52:38.787Z,29.33
2018-08-19T06:53:48.879Z,29.33
2018-08-19T06:54:58.975Z,29.33
2018-08-19T06:56:08.806Z,29.29
2018-08-19T06:57:18.900Z,29.24
2018-08-19T06:58:28.995Z,29.48
2018-08-19T06:59:38.568Z,29.39
2018-08-19T07:00:48.672Z,29.35
2018-08-19T07:01:58.747Z,29.33
2018-08-19T07:03:08.864Z,29.38
2018-08-19T07:04:19.139Z,29.47
2018-08-19T07:05:29.255Z,29.51
2018-08-19T07:06:39.345Z,29.43
2018-08-19T07:07:49.419Z,29.52
2018-08-19T07:08:59.242Z,29.54
2018-08-19T07:10:09.340Z,29.63
2018-08-19T07:11:19.414Z,29.61
2018-08-19T07:12:29.275Z,29.58
2018-08-19T07:13:39.551Z,29.69
2018-08-19T07:14:50.708Z,29.84
2018-08-19T07:16:00.522Z,29.95
2018-08-19T07:17:10.611Z,30.04
2018-08-19T07:18:20.432Z,30.13
2018-08-19T07:19:30.575Z,30.24
2018-08-19T07:20:40.655Z,30.37
2018-08-19T07:21:50.772Z,30.42
2018-08-19T07:23:00.871Z,30.6
2018-08-19T07:24:10.946Z,30.54
2018-08-19T07:25:21.036Z,30.69
2018-08-19T07:26:30.878Z,30.84
2018-08-19T07:27:40.959Z,30.97
2018-08-19T07:28:51.081Z,31.18
2018-08-19T07:30:01.180Z,31.4
2018-08-19T07:31:11.294Z,31.55
2018-08-19T07:32:21.110Z,31.81
2018-08-19T07:33:30.938Z,31.97
2018-08-19T07:34:40.777Z,32.13
2018-08-19T07:35:50.871Z,32.32
2018-08-19T07:37:00.556Z,32.38
2018-08-19T07:38:10.665Z,32.47
2018-08-19T07:39:20.754Z,32.75
2018-08-19T07:40:30.848Z,32.79
2018-08-19T07:41:40.428Z,32.93
2018-08-19T07:42:50.008Z,33.05
2018-08-19T07:44:00.064Z,33.21
2018-08-19T07:45:10.234Z,33.23
2018-08-19T07:46:20.321Z,33.46
2018-08-19T07:47:30.455Z,33.55
2018-08-19T07:48:40.287Z,33.73
2018-08-19T07:49:50.423Z,33.81
2018-08-19T07:51:00.855Z,34.03
2018-08-19T07:52:10.973Z,34.12
2018-08-19T07:53:21.077Z,34.15
2018-08-19T07:54:31.171Z,34.37
2018-08-19T07:55:41.318Z,34.46
2018-08-19T07:56:51.413Z,34.46
2018-08-19T07:58:01.517Z,34.56
2018-08-19T07:59:11.636Z,34.61
2018-08-19T08:00:21.711Z,34.61
2018-08-19T08:01:31.926Z,34.67
2018-08-19T08:02:41.841Z,34.69
2018-08-19T08:03:51.941Z,34.66
2018-08-19T08:05:02.035Z,34.79
2018-08-19T08:06:12.130Z,34.78
2018-08-19T08:07:22.250Z,34.96
2018-08-19T08:08:32.073Z,34.99
2018-08-19T08:09:42.164Z,35.15
2018-08-19T08:10:52.427Z,35.24
2018-08-19T08:12:02.748Z,35.31
2018-08-19T08:13:12.311Z,35.28
2018-08-19T08:14:22.408Z,35.26
2018-08-19T08:15:32.240Z,35.34
2018-08-19T08:16:42.327Z,35.38
2018-08-19T08:17:52.420Z,35.45
2018-08-19T08:19:02.536Z,35.49
2018-08-19T08:20:12.627Z,35.46
2018-08-19T08:21:23.165Z,35.45
2018-08-19T08:22:33.633Z,35.4
2018-08-19T08:23:43.725Z,35.42
2018-08-19T08:24:53.804Z,35.43
2018-08-19T08:26:03.621Z,35.38
2018-08-19T08:27:13.731Z,35.39
2018-08-19T08:28:23.848Z,35.4
2018-08-19T08:29:33.979Z,35.46
2018-08-19T08:30:43.880Z,35.53
2018-08-19T08:31:53.976Z,35.67
2018-08-19T08:33:03.836Z,35.67
2018-08-19T08:34:14.119Z,35.71
2018-08-19T08:35:24.351Z,35.65
2018-08-19T08:36:34.289Z,35.5
2018-08-19T08:37:44.146Z,35.33
2018-08-19T08:38:54.240Z,35.2
2018-08-19T08:40:04.365Z,34.99
2018-08-19T08:41:14.465Z,34.79
2018-08-19T08:42:24.537Z,34.79
2018-08-19T08:43:34.845Z,34.91
2018-08-19T08:44:44.948Z,35.13
2018-08-19T08:45:55.520Z,35.01
2018-08-19T08:47:05.461Z,34.87
2018-08-19T08:48:15.633Z,34.64
2018-08-19T08:49:25.718Z,34.34
2018-08-19T08:50:35.576Z,34.17
2018-08-19T08:51:45.412Z,34.11
2018-08-19T08:52:55.539Z,33.97
2018-08-19T08:54:05.760Z,33.89
2018-08-19T08:55:15.873Z,33.92
2018-08-19T08:56:26.151Z,33.9
2018-08-19T08:57:36.539Z,33.99
2018-08-19T08:58:46.681Z,33.95
2018-08-19T08:59:56.583Z,33.69
2018-08-19T09:01:06.702Z,33.66
2018-08-19T09:02:16.835Z,33.55
2018-08-19T09:03:27.029Z,33.58
2018-08-19T09:04:37.158Z,33.68
2018-08-19T09:05:47.303Z,33.73
2018-08-19T09:06:57.388Z,33.81
2018-08-19T09:08:07.221Z,34
2018-08-19T09:09:17.324Z,34.08
2018-08-19T09:10:27.422Z,33.99
2018-08-19T09:11:37.584Z,34
2018-08-19T09:12:47.148Z,33.89
2018-08-19T09:13:57.590Z,33.89
2018-08-19T09:15:08.019Z,34.02
2018-08-19T09:16:18.137Z,34.11
2018-08-19T09:17:28.304Z,34.18
2018-08-19T09:18:38.394Z,34.21
2018-08-19T09:19:48.491Z,34.27
2018-08-19T09:20:58.326Z,34.21
2018-08-19T09:22:08.518Z,34.32
2018-08-19T09:23:18.758Z,34.39
2018-08-19T09:24:29.027Z,34.36
2018-08-19T09:25:39.172Z,34.4
2018-08-19T09:26:49.263Z,34.33
2018-08-19T09:27:59.375Z,34.39
2018-08-19T09:29:09.232Z,34.4
2018-08-19T09:30:19.363Z,34.4
2018-08-19T09:31:29.483Z,34.43
2018-08-19T09:32:39.313Z,34.41
2018-08-19T09:33:49.445Z,34.41
2018-08-19T09:34:59.599Z,34.32
2018-08-19T09:36:09.443Z,34.4
2018-08-19T09:37:19.309Z,34.32
2018-08-19T09:38:29.155Z,34.19
2018-08-19T09:39:38.974Z,34.1
2018-08-19T09:40:49.436Z,34.08
2018-08-19T09:41:59.890Z,34.1
2018-08-19T09:43:09.981Z,34.18
2018-08-19T09:44:20.086Z,34.12
2018-08-19T09:45:29.921Z,34.11
2018-08-19T09:46:39.735Z,34.1
2018-08-19T09:47:50.205Z,34.06
2018-08-19T09:49:00.962Z,34.14
2018-08-19T09:50:11.104Z,34.14
2018-08-19T09:51:21.219Z,34.19
2018-08-19T09:52:31.310Z,34.21
2018-08-19T09:53:41.396Z,34.22
2018-08-19T09:54:51.505Z,34.19
2018-08-19T09:56:01.344Z,34.34
2018-08-19T09:57:11.429Z,34.34
2018-08-19T09:58:21.530Z,34.34
2018-08-19T09:59:31.621Z,34.32
2018-08-19T10:00:41.732Z,34.36
2018-08-19T10:01:51.847Z,34.34
2018-08-19T10:03:01.434Z,34.3
2018-08-19T10:04:11.508Z,34.26
2018-08-19T10:05:21.592Z,34.18
2018-08-19T10:06:31.428Z,34.24
2018-08-19T10:07:41.552Z,34.34
2018-08-19T10:08:51.820Z,34.32
2018-08-19T10:10:01.962Z,34.41
2018-08-19T10:11:11.797Z,34.45
2018-08-19T10:12:21.914Z,34.43
2018-08-19T10:13:32.093Z,34.52
2018-08-19T10:14:41.958Z,34.61
2018-08-19T10:15:51.600Z,34.71
2018-08-19T10:17:01.694Z,34.72
2018-08-19T10:18:11.808Z,34.83
2018-08-19T10:19:21.390Z,34.72
2018-08-19T10:20:31.485Z,34.78
2018-08-19T10:21:41.619Z,34.83
2018-08-19T10:22:51.724Z,34.83
2018-08-19T10:24:01.815Z,34.97
2018-08-19T10:25:11.639Z,34.94
2018-08-19T10:26:21.739Z,35.06
2018-08-19T10:27:31.907Z,35.08
2018-08-19T10:28:42.001Z,35.15
2018-08-19T10:29:52.096Z,35.26
2018-08-19T10:31:01.928Z,35.26
2018-08-19T10:32:12.058Z,35.23
2018-08-19T10:33:22.149Z,35.26
2018-08-19T10:34:32.260Z,35.28
2018-08-19T10:35:42.367Z,35.34
2018-08-19T10:36:52.482Z,35.35
2018-08-19T10:38:03.219Z,35.46
2018-08-19T10:39:13.590Z,35.45
2018-08-19T10:40:24.152Z,35.43
2018-08-19T10:41:34.300Z,35.47
2018-08-19T10:42:44.378Z,35.55
2018-08-19T10:43:54.465Z,35.62
2018-08-19T10:45:04.350Z,35.62
2018-08-19T10:46:14.568Z,35.72
2018-08-19T10:47:25.050Z,35.82
2018-08-19T10:48:35.156Z,35.94
2018-08-19T10:49:45.272Z,35.98
2018-08-19T10:50:55.376Z,36.05
2018-08-19T10:52:05.676Z,36.17
2018-08-19T10:53:15.865Z,36.21
2018-08-19T10:54:25.437Z,36.22
2018-08-19T10:55:35.264Z,36.32
2018-08-19T10:56:45.161Z,36.26
2018-08-19T10:57:55.253Z,36.36
2018-08-19T10:59:05.350Z,36.43
2018-08-19T11:00:15.455Z,36.49
2018-08-19T11:01:25.565Z,36.52
2018-08-19T11:02:35.718Z,36.59
2018-08-19T11:03:45.623Z,36.58
2018-08-19T11:04:55.719Z,36.61
2018-08-19T11:06:05.817Z,36.63
2018-08-19T11:07:15.914Z,36.74
2018-08-19T11:08:26.038Z,36.81
2018-08-19T11:09:36.140Z,36.88
2018-08-19T11:10:46.251Z,36.96
2018-08-19T11:11:56.343Z,36.88
2018-08-19T11:13:06.456Z,36.99
2018-08-19T11:14:16.313Z,36.97
2018-08-19T11:15:26.422Z,37.07
2018-08-19T11:16:36.530Z,37.17
2018-08-19T11:17:46.686Z,37.17
2018-08-19T11:18:56.786Z,37.15
2018-08-19T11:20:06.637Z,37.17
2018-08-19T11:21:16.736Z,37.22
2018-08-19T11:22:26.832Z,37.15
2018-08-19T11:23:36.722Z,37.18
2018-08-19T11:24:46.567Z,37.23
2018-08-19T11:25:56.677Z,37.14
2018-08-19T11:27:06.780Z,37.18
2018-08-19T11:28:16.877Z,37.19
2018-08-19T11:29:27.194Z,37.19
2018-08-19T11:30:37.295Z,37.23
2018-08-19T11:31:47.410Z,37.22
2018-08-19T11:32:57.496Z,37.29
2018-08-19T11:34:07.521Z,37.3
2018-08-19T11:35:17.420Z,37.3
2018-08-19T11:36:27.271Z,37.3
2018-08-19T11:37:37.362Z,37.33
2018-08-19T11:38:47.475Z,37.31
2018-08-19T11:39:57.573Z,37.41
2018-08-19T11:41:07.673Z,37.36
2018-08-19T11:42:17.776Z,37.45
2018-08-19T11:43:28.130Z,37.46
2018-08-19T11:44:38.410Z,37.45
2018-08-19T11:45:48.240Z,37.49
2018-08-19T11:46:58.323Z,37.57
2018-08-19T11:48:08.478Z,37.62
2018-08-19T11:49:18.588Z,37.71
2018-08-19T11:50:28.712Z,37.69
2018-08-19T11:51:38.824Z,37.76
2018-08-19T11:52:48.658Z,37.81
2018-08-19T11:53:58.763Z,37.81
2018-08-19T11:55:08.349Z,37.81
2018-08-19T11:56:18.582Z,37.76
2018-08-19T11:57:28.704Z,37.81
2018-08-19T11:58:38.789Z,37.81
2018-08-19T11:59:48.905Z,37.72
2018-08-19T12:00:58.908Z,37.83
2018-08-19T12:02:09.478Z,37.79
2018-08-19T12:03:20.064Z,37.83
2018-08-19T12:04:30.181Z,37.8
2018-08-19T12:05:40.313Z,37.83
2018-08-19T12:06:50.420Z,37.83
2018-08-19T12:08:00.522Z,37.93
2018-08-19T12:09:10.627Z,37.96
2018-08-19T12:10:20.799Z,38.08
2018-08-19T12:11:30.916Z,38.15
2018-08-19T12:12:41.012Z,38.08
2018-08-19T12:13:51.139Z,38.18
2018-08-19T12:15:01.238Z,38.15
2018-08-19T12:16:11.160Z,38.22
2018-08-19T12:17:21.278Z,38.24
2018-08-19T12:18:31.424Z,38.36
2018-08-19T12:19:41.520Z,38.31
2018-08-19T12:20:51.616Z,38.37
2018-08-19T12:22:01.761Z,38.39
2018-08-19T12:23:11.627Z,38.42
2018-08-19T12:24:21.481Z,38.54
2018-08-19T12:25:31.599Z,38.5
2018-08-19T12:26:41.422Z,38.56
2018-08-19T12:27:51.690Z,38.55
2018-08-19T12:29:02.194Z,38.61
2018-08-19T12:30:12.029Z,38.68
2018-08-19T12:31:21.863Z,38.66
2018-08-19T12:32:31.753Z,38.64
2018-08-19T12:33:41.851Z,38.66
2018-08-19T12:34:51.952Z,38.64
2018-08-19T12:36:02.112Z,38.68
2018-08-19T12:37:12.603Z,38.68
2018-08-19T12:38:23.280Z,38.65
2018-08-19T12:39:33.379Z,38.55
2018-08-19T12:40:43.474Z,38.62
2018-08-19T12:41:53.555Z,38.55
2018-08-19T12:43:03.688Z,38.52
2018-08-19T12:44:13.534Z,38.58
2018-08-19T12:45:23.359Z,38.64
2018-08-19T12:46:33.187Z,38.74
2018-08-19T12:47:43.311Z,38.7
2018-08-19T12:48:53.389Z,38.74
2018-08-19T12:50:03.240Z,38.62
2018-08-19T12:51:13.367Z,38.68
2018-08-19T12:52:23.551Z,38.77
2018-08-19T12:53:33.694Z,38.59
2018-08-19T12:54:43.510Z,38.61
2018-08-19T12:55:53.803Z,38.65
2018-08-19T12:57:04.268Z,38.68
2018-08-19T12:58:13.838Z,38.65
2018-08-19T12:59:23.939Z,38.7
2018-08-19T13:00:34.064Z,38.66
2018-08-19T13:01:43.907Z,38.65
2018-08-19T13:02:54.035Z,38.71
2018-08-19T13:04:04.122Z,38.58
2018-08-19T13:05:14.219Z,38.73
2018-08-19T13:06:24.324Z,38.81
2018-08-19T13:07:34.172Z,38.74
2018-08-19T13:08:44.024Z,38.76
2018-08-19T13:09:54.131Z,38.74
2018-08-19T13:11:04.224Z,38.84
2018-08-19T13:12:14.090Z,38.85
2018-08-19T13:13:24.203Z,38.92
2018-08-19T13:14:34.313Z,39.03
2018-08-19T13:15:44.405Z,39.04
2018-08-19T13:16:54.233Z,39.09
2018-08-19T13:18:04.403Z,39
2018-08-19T13:19:14.486Z,38.99
2018-08-19T13:20:24.125Z,38.97
2018-08-19T13:21:34.232Z,38.99
2018-08-19T13:22:44.446Z,38.99
2018-08-19T13:23:54.405Z,39.08
2018-08-19T13:25:04.226Z,39.08
2018-08-19T13:26:14.068Z,39.08
2018-08-19T13:27:24.211Z,39.03
2018-08-19T13:28:34.471Z,39.09
2018-08-19T13:29:44.849Z,39.08
2018-08-19T13:30:54.960Z,39.12
2018-08-19T13:32:05.258Z,38.96
2018-08-19T13:33:15.092Z,38.99
2018-08-19T13:34:25.207Z,39.01
2018-08-19T13:35:35.345Z,39
2018-08-19T13:36:45.461Z,39.06
2018-08-19T13:37:55.571Z,39.06
2018-08-19T13:39:05.653Z,39.04
2018-08-19T13:40:15.788Z,39.01
2018-08-19T13:41:25.880Z,38.87
2018-08-19T13:42:35.465Z,38.89
2018-08-19T13:43:45.625Z,38.93
2018-08-19T13:44:55.455Z,38.9
2018-08-19T13:46:05.611Z,38.84
2018-08-19T13:47:16.117Z,38.9
2018-08-19T13:48:26.640Z,38.87
2018-08-19T13:49:36.791Z,38.68
2018-08-19T13:50:46.636Z,38.76
2018-08-19T13:51:56.733Z,38.7
2018-08-19T13:53:06.577Z,38.64
2018-08-19T13:54:16.680Z,38.71
2018-08-19T13:55:26.614Z,38.64
2018-08-19T13:56:36.699Z,38.61
2018-08-19T13:57:46.549Z,38.65
2018-08-19T13:58:56.480Z,38.68
2018-08-19T14:00:06.612Z,38.61
2018-08-19T14:01:16.808Z,38.71
2018-08-19T14:02:26.900Z,38.8
2018-08-19T14:03:37.017Z,38.78
2018-08-19T14:04:47.110Z,38.77
2018-08-19T14:05:57.228Z,38.78
2018-08-19T14:07:07.361Z,38.81
2018-08-19T14:08:17.465Z,38.89
2018-08-19T14:09:27.054Z,38.84
2018-08-19T14:10:37.169Z,38.85
2018-08-19T14:11:47.318Z,38.84
2018-08-19T14:12:57.237Z,38.77
2018-08-19T14:14:07.331Z,38.64
2018-08-19T14:15:17.154Z,38.59
2018-08-19T14:16:27.279Z,38.54
2018-08-19T14:17:37.114Z,38.49
2018-08-19T14:18:47.269Z,38.4
2018-08-19T14:19:56.863Z,38.42
2018-08-19T14:21:06.986Z,38.37
2018-08-19T14:22:17.096Z,38.39
2018-08-19T14:23:27.215Z,38.37
2018-08-19T14:24:37.107Z,38.36
2018-08-19T14:25:47.232Z,38.39
2018-08-19T14:26:57.330Z,38.33
2018-08-19T14:28:07.173Z,38.39
2018-08-19T14:29:17.264Z,38.35
2018-08-19T14:30:27.773Z,38.37
2018-08-19T14:31:38.496Z,38.36
2018-08-19T14:32:48.587Z,38.35
2018-08-19T14:33:58.430Z,38.33
2018-08-19T14:35:08.555Z,38.37
2018-08-19T14:36:18.662Z,38.36
2018-08-19T14:37:28.772Z,38.22
2018-08-19T14:38:38.878Z,38.3
2018-08-19T14:39:48.969Z,38.17
2018-08-19T14:40:59.148Z,38.24
2018-08-19T14:42:09.314Z,38.21
2018-08-19T14:43:19.423Z,38.13
2018-08-19T14:44:29.529Z,38.17
2018-08-19T14:45:39.395Z,38.15
2018-08-19T14:46:49.267Z,38.17
2018-08-19T14:47:59.101Z,38.21
2018-08-19T14:49:09.209Z,38.09
2018-08-19T14:50:19.040Z,38.17
2018-08-19T14:51:29.160Z,38.12
2018-08-19T14:52:39.267Z,38.12
2018-08-19T14:53:49.214Z,38.05
2018-08-19T14:54:59.587Z,38
2018-08-19T14:56:09.713Z,38.02
2018-08-19T14:57:19.866Z,38.09
2018-08-19T14:58:29.974Z,38.08
2018-08-19T14:59:40.095Z,38.12
2018-08-19T15:00:50.196Z,38.12
2018-08-19T15:02:00.441Z,38.12
2018-08-19T15:03:10.591Z,38.17
2018-08-19T15:04:20.677Z,38.12
2018-08-19T15:05:30.556Z,38.27
2018-08-19T15:06:40.670Z,38.27
2018-08-19T15:07:50.802Z,38.37
2018-08-19T15:09:00.962Z,38.37
2018-08-19T15:10:11.187Z,38.44
2018-08-19T15:11:21.568Z,38.35
2018-08-19T15:12:31.404Z,38.42
2018-08-19T15:13:41.504Z,38.44
2018-08-19T15:14:51.646Z,38.39
2018-08-19T15:16:01.743Z,38.33
2018-08-19T15:17:11.585Z,38.36
2018-08-19T15:18:21.700Z,38.18
2018-08-19T15:19:31.797Z,38.27
2018-08-19T15:20:41.977Z,38.22
2018-08-19T15:21:51.804Z,38.25
2018-08-19T15:23:01.903Z,38.27
2018-08-19T15:24:11.741Z,38.2
2018-08-19T15:25:21.861Z,38.13
2018-08-19T15:26:31.978Z,38.18
2018-08-19T15:27:42.106Z,38.1
2018-08-19T15:28:52.210Z,38.03
2018-08-19T15:30:02.345Z,37.98
2018-08-19T15:31:12.445Z,37.99
2018-08-19T15:32:23.154Z,37.88
2018-08-19T15:33:34.573Z,37.8
2018-08-19T15:34:44.415Z,37.79
2018-08-19T15:35:54.523Z,37.74
2018-08-19T15:37:04.675Z,37.69